Time;durP1;ratioP1;P1;durP2;ratioP2;P2;SDS_P1;SDS_P2;PMS_P1;PMS_P2;Temp;Humidity;BMP_temperature;BMP_pressure;BME280_temperature;BME280_humidity;BME280_pressure;Samples;Min_cycle;Max_cycle;Signal;HPM_P1;HPM_P2
2021/10/24 00:01:10;;;;;;;78.92;24.82;;;;;;;1.30;100.00;101623.25;1724311;83;20868;-84
2021/10/24 00:03:36;;;;;;;73.57;23.38;;;;;;;1.26;100.00;101614.78;1724352;81;20900;-84
2021/10/24 00:06:02;;;;;;;79.85;25.32;;;;;;;1.24;100.00;101614.66;1724289;83;21972;-84
2021/10/24 00:08:30;;;;;;;67.05;22.50;;;;;;;1.19;100.00;101607.19;1723850;83;20999;-84
2021/10/24 00:10:56;;;;;;;73.83;24.18;;;;;;;1.17;100.00;101607.86;1705737;83;21066;-84
2021/10/24 00:13:22;;;;;;;83.10;24.95;;;;;;;1.13;100.00;101607.89;1724515;83;20952;-83
2021/10/24 00:15:48;;;;;;;79.15;24.85;;;;;;;1.07;100.00;101599.28;1705984;83;20991;-84
2021/10/24 00:18:14;;;;;;;80.53;25.32;;;;;;;1.02;100.00;101605.60;1724597;82;21960;-83
2021/10/24 00:20:40;;;;;;;72.20;24.25;;;;;;;1.00;100.00;101604.46;1724632;83;20900;-81
2021/10/24 00:23:06;;;;;;;80.65;23.62;;;;;;;0.95;100.00;101610.78;1724403;83;20919;-84
2021/10/24 00:25:31;;;;;;;72.25;22.82;;;;;;;0.88;100.00;101611.97;1724605;83;21004;-83
2021/10/24 00:27:58;;;;;;;74.95;24.18;;;;;;;0.82;100.00;101602.52;1724547;83;20995;-83
2021/10/24 00:30:24;;;;;;;63.80;22.20;;;;;;;0.82;100.00;101602.52;1724241;83;21571;-83
2021/10/24 00:32:50;;;;;;;67.10;22.55;;;;;;;0.80;100.00;101601.88;1724414;83;21027;-84
2021/10/24 00:35:16;;;;;;;67.92;22.32;;;;;;;0.79;100.00;101594.39;1724624;83;20888;-83
2021/10/24 00:37:42;;;;;;;70.78;21.45;;;;;;;0.79;100.00;101595.72;1724297;83;21002;-82
2021/10/24 00:40:09;;;;;;;63.50;21.45;;;;;;;0.75;100.00;101598.90;1724556;83;20979;-83
2021/10/24 00:42:35;;;;;;;61.77;21.65;;;;;;;0.72;100.00;101593.44;1724074;82;21890;-83
2021/10/24 00:45:01;;;;;;;67.47;21.65;;;;;;;0.68;100.00;101594.78;1724327;81;20860;-83
2021/10/24 00:47:30;;;;;;;65.55;21.48;;;;;;;0.64;100.00;101594.27;1724128;83;21039;-83
2021/10/24 00:49:55;;;;;;;74.82;21.85;;;;;;;0.61;100.00;101599.91;1724201;82;21453;-83
2021/10/24 00:52:21;;;;;;;73.78;20.95;;;;;;;0.55;100.00;101593.14;1724356;83;21086;-83
2021/10/24 00:54:48;;;;;;;73.40;20.90;;;;;;;0.53;100.00;101600.42;1724777;82;21182;-83
2021/10/24 00:57:14;;;;;;;70.22;22.73;;;;;;;0.51;100.00;101599.79;1724476;82;21106;-83
2021/10/24 00:59:41;;;;;;;63.10;21.40;;;;;;;0.49;100.00;101598.62;1724625;82;21728;-82
2021/10/24 01:02:06;;;;;;;66.02;22.20;;;;;;;0.49;100.00;101599.94;1724294;82;21015;-83
2021/10/24 01:04:33;;;;;;;66.50;21.48;;;;;;;0.47;100.00;101599.78;1724510;83;20884;-83
2021/10/24 01:07:03;;;;;;;62.10;20.77;;;;;;;0.46;100.00;101602.93;1724464;83;21098;-81
2021/10/24 01:09:32;;;;;;;72.40;22.98;;;;;;;0.44;100.00;101604.91;1724096;83;21044;-83
2021/10/24 01:11:59;;;;;;;65.40;19.87;;;;;;;0.40;100.00;101600.95;1724488;83;21031;-83
2021/10/24 01:14:26;;;;;;;62.43;21.02;;;;;;;0.37;100.00;101599.97;1724427;83;21504;-83
2021/10/24 01:16:53;;;;;;;67.90;23.00;;;;;;;0.31;100.00;101602.78;1724282;83;21555;-84
2021/10/24 01:19:21;;;;;;;62.45;21.62;;;;;;;0.29;100.00;101602.12;1724448;82;21068;-84
2021/10/24 01:21:47;;;;;;;65.32;21.07;;;;;;;0.27;100.00;101601.98;1724389;83;21522;-83
2021/10/24 01:24:13;;;;;;;66.50;20.80;;;;;;;0.25;100.00;101606.11;1705814;83;21054;-83
2021/10/24 01:26:41;;;;;;;58.13;20.60;;;;;;;0.23;100.00;101610.23;1724597;82;21000;-81
2021/10/24 01:29:10;;;;;;;65.50;20.65;;;;;;;0.23;100.00;101614.72;1724682;81;21000;-83
2021/10/24 01:31:37;;;;;;;67.15;20.37;;;;;;;0.19;100.00;101615.55;1724368;82;21710;-82
2021/10/24 01:34:04;;;;;;;62.45;21.48;;;;;;;0.18;100.00;101621.03;1724340;83;21535;-83
2021/10/24 01:36:32;;;;;;;59.70;20.40;;;;;;;0.16;100.00;101617.20;1724207;83;21512;-82
2021/10/24 01:38:58;;;;;;;62.20;21.48;;;;;;;0.14;100.00;101613.06;1724771;82;21506;-82
2021/10/24 01:41:27;;;;;;;69.30;22.10;;;;;;;0.15;100.00;101619.54;1725227;82;20979;-83
2021/10/24 01:43:53;;;;;;;59.75;22.15;;;;;;;0.16;100.00;101621.69;1732757;82;20983;-83
2021/10/24 01:46:19;;;;;;;72.37;22.67;;;;;;;0.17;100.00;101623.33;1732813;82;20939;-82
2021/10/24 01:48:47;;;;;;;65.30;21.07;;;;;;;0.19;100.00;101622.17;1732989;82;21034;-83
2021/10/24 01:51:15;;;;;;;61.55;20.88;;;;;;;0.22;100.00;101626.32;1732630;82;21459;-83
2021/10/24 01:53:45;;;;;;;68.85;22.07;;;;;;;0.22;100.00;101630.30;1733107;82;21487;-83
2021/10/24 01:56:11;;;;;;;70.28;24.07;;;;;;;0.20;100.00;101625.65;1732807;82;21139;-83
2021/10/24 01:58:37;;;;;;;66.80;22.25;;;;;;;0.18;100.00;101623.18;1732852;82;21010;-81
2021/10/24 02:01:05;;;;;;;78.25;23.90;;;;;;;0.16;100.00;101625.16;1732769;82;21094;-83
2021/10/24 02:03:31;;;;;;;70.15;23.87;;;;;;;0.17;100.00;101627.30;1733290;82;21004;-83
2021/10/24 02:05:57;;;;;;;62.67;22.45;;;;;;;0.19;100.00;101625.33;1732968;81;21038;-83
2021/10/24 02:08:23;;;;;;;52.10;20.48;;;;;;;0.15;100.00;101631.97;1733007;81;21060;-82
2021/10/24 02:10:49;;;;;;;57.73;21.27;;;;;;;0.12;100.00;101637.56;1733147;82;20876;-81
2021/10/24 02:13:15;;;;;;;56.75;19.37;;;;;;;0.07;100.00;101632.78;1732852;82;20995;-84
2021/10/24 02:15:42;;;;;;;61.60;21.30;;;;;;;0.06;100.00;101635.11;1733115;82;21022;-84
2021/10/24 02:18:10;;;;;;;64.77;22.98;;;;;;;0.03;100.00;101639.41;1733001;82;21602;-84
2021/10/24 02:20:38;;;;;;;55.08;21.05;;;;;;;0.00;100.00;101639.75;1733095;82;21904;-83
2021/10/24 02:23:06;;;;;;;58.95;20.30;;;;;;;0.03;100.00;101643.86;1707698;82;21426;-83
2021/10/24 02:25:34;;;;;;;64.20;21.42;;;;;;;0.03;100.00;101653.13;1733033;82;21031;-84
2021/10/24 02:28:01;;;;;;;59.13;21.42;;;;;;;-0.03;100.00;101662.09;1732785;81;21011;-84
2021/10/24 02:30:27;;;;;;;63.63;21.52;;;;;;;-0.03;100.00;101658.59;1733288;82;20975;-84
2021/10/24 02:32:53;;;;;;;55.83;20.90;;;;;;;0.00;100.00;101656.97;1732759;82;21958;-83
2021/10/24 02:35:21;;;;;;;56.10;21.02;;;;;;;-0.02;100.00;101655.80;1732528;82;21089;-81
2021/10/24 02:37:47;;;;;;;70.05;20.57;;;;;;;-0.01;100.00;101648.66;1732718;82;21082;-84
2021/10/24 02:40:14;;;;;;;63.83;20.88;;;;;;;-0.07;100.00;101644.84;1732981;82;21023;-82
2021/10/24 02:42:40;;;;;;;54.40;20.02;;;;;;;-0.13;100.00;101652.62;1731211;82;21093;-81
2021/10/24 02:45:08;;;;;;;56.37;20.17;;;;;;;-0.15;100.00;101641.36;1729814;83;21189;-84
2021/10/24 02:47:34;;;;;;;61.45;21.23;;;;;;;-0.14;100.00;101640.39;1729741;83;21039;-84
2021/10/24 02:50:01;;;;;;;55.08;22.17;;;;;;;-0.11;100.00;101645.36;1729982;83;21669;-84
2021/10/24 02:52:26;;;;;;;64.67;21.33;;;;;;;-0.11;100.00;101644.03;1729867;82;20988;-84
2021/10/24 02:54:53;;;;;;;61.23;20.70;;;;;;;-0.15;100.00;101643.50;1730076;83;20896;-84
2021/10/24 02:57:18;;;;;;;57.88;21.80;;;;;;;-0.14;100.00;101639.06;1729887;82;22117;-84
2021/10/24 02:59:44;;;;;;;61.48;20.68;;;;;;;-0.14;100.00;101642.53;1729778;83;20979;-84
2021/10/24 03:02:10;;;;;;;58.25;20.37;;;;;;;-0.18;100.00;101635.88;1729706;83;20908;-83
2021/10/24 03:04:36;;;;;;;62.13;19.55;;;;;;;-0.17;100.00;101635.42;1729328;83;20888;-84
2021/10/24 03:07:02;;;;;;;56.65;20.27;;;;;;;-0.22;100.00;101632.42;1729767;82;22142;-85
2021/10/24 03:09:28;;;;;;;47.95;19.52;;;;;;;-0.22;100.00;101641.69;1729903;82;21132;-82
2021/10/24 03:11:55;;;;;;;52.85;19.67;;;;;;;-0.25;100.00;101638.36;1729714;81;21053;-84
2021/10/24 03:14:21;;;;;;;60.60;20.57;;;;;;;-0.27;100.00;101640.84;1730015;82;21416;-83
2021/10/24 03:16:47;;;;;;;58.60;19.57;;;;;;;-0.32;100.00;101641.34;1729871;83;21050;-84
2021/10/24 03:19:14;;;;;;;58.95;19.87;;;;;;;-0.31;100.00;101639.52;1730133;83;21031;-83
2021/10/24 03:21:40;;;;;;;54.83;20.02;;;;;;;-0.31;100.00;101639.52;1725729;83;21167;-83
2021/10/24 03:24:06;;;;;;;58.05;20.32;;;;;;;-0.29;100.00;101644.99;1729707;83;22504;-85
2021/10/24 03:26:34;;;;;;;62.93;20.57;;;;;;;-0.29;100.00;101646.31;1729960;82;21124;-84
2021/10/24 03:29:00;;;;;;;69.67;20.08;;;;;;;-0.30;100.00;101643.81;1730297;82;21007;-82
2021/10/24 03:31:27;;;;;;;52.25;19.35;;;;;;;-0.27;100.00;101646.14;1730250;82;21027;-84
2021/10/24 03:33:53;;;;;;;63.15;19.50;;;;;;;-0.28;100.00;101651.11;1729825;83;21112;-83
2021/10/24 03:36:20;;;;;;;57.30;20.88;;;;;;;-0.31;100.00;101647.46;1730427;83;20880;-82
2021/10/24 03:38:46;;;;;;;78.30;26.25;;;;;;;-0.29;100.00;101654.76;1730151;81;20972;-81
2021/10/24 03:41:13;;;;;;;60.10;20.25;;;;;;;-0.32;100.00;101663.03;1703218;83;20868;-84
2021/10/24 03:43:40;;;;;;;60.85;20.57;;;;;;;-0.39;100.00;101664.15;1732026;82;21070;-81
2021/10/24 03:46:06;;;;;;;51.63;18.90;;;;;;;-0.41;100.00;101664.83;1733256;82;21089;-84
2021/10/24 03:48:32;;;;;;;60.08;19.77;;;;;;;-0.43;100.00;101668.63;1733122;81;21015;-83
2021/10/24 03:50:58;;;;;;;50.95;19.32;;;;;;;-0.48;100.00;101658.50;1733331;82;20904;-86
2021/10/24 03:53:24;;;;;;;53.45;18.00;;;;;;;-0.51;100.00;101670.23;1733121;82;20880;-83
2021/10/24 03:55:50;;;;;;;53.20;18.42;;;;;;;-0.55;100.00;101672.88;1733489;82;20896;-85
2021/10/24 03:58:16;;;;;;;52.17;20.82;;;;;;;-0.55;100.00;101674.70;1733369;82;21669;-83
2021/10/24 04:00:43;;;;;;;58.78;20.40;;;;;;;-0.53;100.00;101678.00;1733099;82;21468;-83
2021/10/24 04:03:11;;;;;;;115.32;30.88;;;;;;;-0.52;100.00;101687.12;1733075;82;21012;-84
2021/10/24 04:05:38;;;;;;;78.17;24.30;;;;;;;-0.47;100.00;101683.50;1733330;82;20988;-83
2021/10/24 04:08:05;;;;;;;73.52;22.55;;;;;;;-0.41;100.00;101695.28;1733175;82;21019;-84
2021/10/24 04:10:31;;;;;;;69.77;21.57;;;;;;;-0.41;100.00;101683.83;1733590;81;21149;-83
2021/10/24 04:12:58;;;;;;;97.17;28.25;;;;;;;-0.39;100.00;101689.80;1733604;82;21043;-83
2021/10/24 04:15:25;;;;;;;90.53;26.95;;;;;;;-0.38;100.00;101688.80;1733233;82;21520;-83
2021/10/24 04:17:51;;;;;;;80.42;24.27;;;;;;;-0.36;100.00;101694.28;1733405;82;21472;-82
2021/10/24 04:20:20;;;;;;;68.62;23.80;;;;;;;-0.30;100.00;101699.43;1733211;82;20857;-84
2021/10/24 04:22:47;;;;;;;77.82;23.87;;;;;;;-0.26;100.00;101702.11;1733355;82;21184;-83
2021/10/24 04:25:15;;;;;;;70.47;22.62;;;;;;;-0.20;100.00;101713.38;1733141;82;21082;-84
2021/10/24 04:27:41;;;;;;;75.95;26.07;;;;;;;-0.09;100.00;101717.53;1733201;82;21086;-81
2021/10/24 04:30:10;;;;;;;72.17;23.62;;;;;;;0.03;100.00;101716.26;1733439;82;21054;-83
2021/10/24 04:32:40;;;;;;;75.80;25.40;;;;;;;0.18;100.00;101720.42;1733366;82;20995;-84
2021/10/24 04:35:07;;;;;;;74.72;25.95;;;;;;;0.30;100.00;101726.23;1732900;82;21126;-83
2021/10/24 04:37:33;;;;;;;69.87;24.67;;;;;;;0.42;100.00;101720.44;1733446;82;21042;-83
2021/10/24 04:39:59;;;;;;;68.65;24.10;;;;;;;0.59;100.00;101721.27;1732988;82;20871;-83
2021/10/24 04:42:24;;;;;;;71.72;24.60;;;;;;;0.75;100.00;101718.28;1737507;81;20888;-83
2021/10/24 04:44:52;;;;;;;66.28;25.72;;;;;;;0.91;100.00;101724.87;1756507;81;20939;-85
2021/10/24 04:47:18;;;;;;;78.37;25.90;;;;;;;1.09;100.00;101720.22;1756314;81;21127;-84
2021/10/24 04:49:44;;;;;;;86.63;26.23;;;;;;;1.34;100.00;101723.62;1756092;81;21063;-84
2021/10/24 04:52:10;;;;;;;64.42;21.90;;;;;;;1.51;100.00;101728.38;1756216;81;20967;-81
2021/10/24 04:54:36;;;;;;;74.30;25.10;;;;;;;1.71;100.00;101728.80;1756305;81;21075;-82
2021/10/24 04:57:03;;;;;;;69.75;24.63;;;;;;;1.98;100.00;101731.48;1756234;81;20908;-82
2021/10/24 04:59:29;;;;;;;71.57;25.12;;;;;;;2.32;100.00;101731.59;1756360;81;21029;-83
2021/10/24 05:01:55;;;;;;;99.30;31.75;;;;;;;2.56;100.00;101732.41;1756040;81;21510;-83
2021/10/24 05:04:21;;;;;;;135.82;41.60;;;;;;;2.75;100.00;101727.93;1756155;81;21110;-83
2021/10/24 05:06:47;;;;;;;85.97;27.98;;;;;;;3.03;100.00;101732.17;1756538;81;21056;-82
2021/10/24 05:09:13;;;;;;;76.07;25.10;;;;;;;3.31;100.00;101733.70;1756284;81;21015;-83
2021/10/24 05:11:39;;;;;;;85.07;26.48;;;;;;;3.55;100.00;101729.91;1747191;81;21132;-84
2021/10/24 05:14:09;;;;;;;70.30;24.18;;;;;;;3.73;100.00;101723.37;1756369;81;20959;-84
2021/10/24 05:16:36;;;;;;;76.75;25.23;;;;;;;3.89;100.00;101725.02;1755859;81;21027;-85
2021/10/24 05:19:04;;;;;;;67.30;25.52;;;;;;;3.97;100.00;101723.06;1756335;81;21022;-83
2021/10/24 05:21:32;;;;;;;106.47;32.70;;;;;;;4.04;100.00;101729.28;1756224;81;21037;-80
2021/10/24 05:23:58;;;;;;;81.53;26.48;;;;;;;4.16;100.00;101733.62;1711063;82;21081;-83
2021/10/24 05:26:25;;;;;;;73.40;24.85;;;;;;;4.26;100.00;101746.13;1710871;82;21025;-84
2021/10/24 05:28:51;;;;;;;75.28;24.37;;;;;;;4.32;100.00;101744.06;1711126;82;21108;-81
2021/10/24 05:31:16;;;;;;;69.72;25.95;;;;;;;4.49;100.00;101751.28;1711339;82;20977;-82
2021/10/24 05:33:43;;;;;;;84.00;25.90;;;;;;;4.69;100.00;101747.98;1711661;83;21742;-88
2021/10/24 05:36:09;;;;;;;88.40;29.02;;;;;;;5.01;100.00;101752.77;1711173;83;21866;-89
2021/10/24 05:38:34;;;;;;;73.37;24.63;;;;;;;5.55;100.00;101755.25;1711562;83;21309;-82
2021/10/24 05:41:00;;;;;;;69.72;24.60;;;;;;;6.06;100.00;101759.41;1712248;83;20842;-81
2021/10/24 05:43:27;;;;;;;73.28;24.43;;;;;;;6.42;100.00;101772.49;1711481;83;21030;-83
2021/10/24 05:45:53;;;;;;;69.07;23.80;;;;;;;6.47;100.00;101771.86;1711221;83;21606;-83
2021/10/24 05:48:21;;;;;;;67.60;23.60;;;;;;;6.31;100.00;101771.22;1711549;83;21168;-89
2021/10/24 05:50:48;;;;;;;66.05;22.42;;;;;;;6.20;100.00;101770.98;1711209;83;21057;-83
2021/10/24 05:53:14;;;;;;;71.57;21.57;;;;;;;6.06;100.00;101766.09;1711298;83;21033;-83
2021/10/24 05:55:40;;;;;;;58.68;21.17;;;;;;;5.96;100.00;101763.80;1711392;83;21009;-84
2021/10/24 05:58:06;;;;;;;63.50;20.12;;;;;;;5.91;100.00;101763.54;1710904;83;20914;-84
2021/10/24 06:00:33;;;;;;;50.08;19.55;;;;;;;5.86;100.00;101761.48;1710837;83;21072;-84
2021/10/24 06:03:06;;;;;;;50.60;18.17;;;;;;;5.96;100.00;101772.34;1697111;83;21549;-86
2021/10/24 06:05:34;;;;;;;55.95;19.30;;;;;;;5.99;100.00;101765.26;1706699;83;21009;-83
2021/10/24 06:08:03;;;;;;;45.00;16.15;;;;;;;6.19;100.00;101774.17;1710950;83;21048;-83
2021/10/24 06:10:37;;;;;;;53.45;17.40;;;;;;;6.35;100.00;101773.82;1710684;83;21565;-79
2021/10/24 06:13:02;;;;;;;64.85;21.23;;;;;;;6.67;100.00;101771.90;1706965;83;20950;-84
2021/10/24 06:15:29;;;;;;;46.55;15.90;;;;;;;7.34;100.00;101768.16;1710640;83;21067;-83
2021/10/24 06:17:56;;;;;;;41.23;13.68;;;;;;;8.22;100.00;101768.98;1702408;83;21336;-84
2021/10/24 06:23:03;;;;;;;33.40;12.93;;;;;;;10.60;100.00;101779.74;1708811;82;21082;-81
2021/10/24 06:25:28;;;;;;;37.20;13.25;;;;;;;10.55;100.00;101780.14;1696541;84;21085;-83
2021/10/24 06:27:55;;;;;;;34.27;12.75;;;;;;;10.44;100.00;101781.23;1696725;83;21039;-85
2021/10/24 06:30:22;;;;;;;39.50;13.38;;;;;;;10.31;100.00;101780.06;1691521;83;21135;-83
2021/10/24 06:32:50;;;;;;;42.33;13.62;;;;;;;10.32;100.00;101776.83;1687149;83;21064;-84
2021/10/24 06:35:16;;;;;;;39.40;12.98;;;;;;;10.69;100.00;101778.89;1697126;83;21042;-83
2021/10/24 06:37:46;;;;;;;34.98;12.73;;;;;;;11.24;100.00;101779.95;1697311;83;21111;-84
2021/10/24 06:40:15;;;;;;;35.30;13.03;;;;;;;11.59;100.00;101775.05;1697181;83;21539;-84
2021/10/24 06:42:42;;;;;;;36.08;13.18;;;;;;;12.08;100.00;101766.06;1692784;83;21157;-83
2021/10/24 06:45:09;;;;;;;34.10;11.85;;;;;;;12.74;100.00;101767.80;1665701;86;21279;-84
2021/10/24 06:47:37;;;;;;;37.48;12.28;;;;;;;13.06;100.00;101769.40;1665813;86;21039;-84
2021/10/24 06:50:06;;;;;;;32.73;12.13;;;;;;;14.04;100.00;101768.28;1670987;85;21076;-85
2021/10/24 06:52:32;;;;;;;27.20;10.35;;;;;;;15.48;100.00;101762.70;1676246;85;21031;-88
2021/10/24 06:54:57;;;;;;;27.00;10.32;;;;;;;16.89;100.00;101761.19;1676457;85;21093;-85
2021/10/24 06:57:24;;;;;;;27.32;10.65;;;;;;;16.91;85.28;101769.88;1676458;85;20888;-88
2021/10/24 06:59:50;;;;;;;29.20;10.88;;;;;;;18.19;93.81;101764.05;1676324;85;21006;-86
2021/10/24 07:02:19;;;;;;;23.15;9.83;;;;;;;20.30;87.82;101771.20;1673716;84;21973;-88
2021/10/24 07:04:46;;;;;;;25.65;9.95;;;;;;;22.48;64.88;101772.00;1699433;84;21354;-88
2021/10/24 07:07:12;;;;;;;22.22;9.78;;;;;;;23.08;50.22;101773.78;1662359;85;21043;-83
2021/10/24 07:09:38;;;;;;;23.65;9.38;;;;;;;22.32;47.05;101756.43;1629496;84;21167;-90
2021/10/24 07:12:04;;;;;;;25.17;9.78;;;;;;;22.02;47.68;101766.97;1661953;84;21151;-87
2021/10/24 07:14:30;;;;;;;27.50;10.13;;;;;;;21.95;47.19;101764.65;1643763;87;21113;-87
2021/10/24 07:16:56;;;;;;;20.75;9.58;;;;;;;22.19;47.03;101768.53;1643986;87;21557;-88
2021/10/24 07:19:22;;;;;;;18.87;8.03;;;;;;;23.13;45.19;101767.34;1643806;87;21087;-86
2021/10/24 07:21:49;;;;;;;18.57;7.40;;;;;;;22.63;40.23;101766.94;1661556;84;21113;-90
2021/10/24 07:24:14;;;;;;;22.32;7.55;;;;;;;21.80;40.62;101775.16;1669343;84;21555;-85
2021/10/24 07:26:41;;;;;;;18.30;6.85;;;;;;;20.81;40.02;101768.47;1688157;82;21018;-87
2021/10/24 07:29:07;;;;;;;19.92;7.22;;;;;;;19.91;41.56;101773.11;1737722;82;21050;-89
2021/10/24 07:31:33;;;;;;;19.73;7.40;;;;;;;19.42;42.85;101776.13;1734209;81;20849;-88
2021/10/24 07:33:58;;;;;;;19.70;6.90;;;;;;;18.83;43.29;101778.88;1742266;81;21621;-90
2021/10/24 07:36:24;;;;;;;15.10;6.03;;;;;;;18.34;43.25;101774.30;1726264;82;21352;-86
2021/10/24 07:38:50;;;;;;;19.85;6.53;;;;;;;17.60;43.20;101777.92;1726139;82;21140;-85
2021/10/24 07:41:17;;;;;;;15.28;6.83;;;;;;;16.75;43.96;101780.74;1726293;82;21676;-84
2021/10/24 07:43:43;;;;;;;14.70;6.08;;;;;;;16.32;45.58;101780.17;1735496;81;21041;-86
2021/10/24 07:46:09;;;;;;;17.55;7.47;;;;;;;16.28;47.26;101780.42;1756673;80;20886;-92
2021/10/24 07:48:35;;;;;;;19.55;7.08;;;;;;;16.41;46.71;101785.87;1725908;83;20989;-85
2021/10/24 07:51:01;;;;;;;11.73;6.12;;;;;;;16.53;48.47;101778.81;1724262;81;21587;-89
2021/10/24 07:53:29;;;;;;;16.62;6.83;;;;;;;18.03;47.71;101776.41;1718242;81;21699;-90
2021/10/24 07:56:02;;;;;;;15.98;6.83;;;;;;;20.01;45.78;101770.78;1725522;81;21073;-87
2021/10/24 07:58:27;;;;;;;24.90;7.20;;;;;;;22.04;44.06;101761.98;1698027;83;21093;-87
2021/10/24 08:00:53;;;;;;;16.50;6.17;;;;;;;23.75;40.38;101756.25;1720079;83;21086;-89
2021/10/24 08:03:20;;;;;;;16.23;6.37;;;;;;;25.36;37.39;101757.08;1725824;81;21141;-87
2021/10/24 08:05:46;;;;;;;12.53;6.67;;;;;;;26.43;35.91;101747.39;1725012;81;21164;-88
2021/10/24 08:08:12;;;;;;;19.15;7.45;;;;;;;27.40;34.60;101744.63;1726847;81;21509;-86
2021/10/24 08:10:38;;;;;;;14.18;6.35;;;;;;;28.70;31.92;101740.36;1753348;81;21019;-89
2021/10/24 08:13:04;;;;;;;16.77;6.75;;;;;;;29.31;30.34;101736.38;1756937;80;20908;-92
2021/10/24 08:15:31;;;;;;;19.35;7.00;;;;;;;29.85;29.36;101729.27;1756766;81;21067;-91
2021/10/24 08:17:57;;;;;;;18.17;6.97;;;;;;;30.41;28.69;101737.20;1756279;81;21043;-90
2021/10/24 08:20:23;;;;;;;16.42;6.37;;;;;;;30.89;27.29;101730.77;1756653;81;20939;-88
2021/10/24 08:22:49;;;;;;;14.15;5.67;;;;;;;30.95;25.55;101725.69;1756444;81;20896;-87
2021/10/24 08:25:16;;;;;;;12.20;5.53;;;;;;;30.65;25.13;101737.47;1756521;81;20904;-90
2021/10/24 08:27:43;;;;;;;12.80;5.90;;;;;;;30.51;24.34;101738.00;1756348;81;21116;-87
2021/10/24 08:30:10;;;;;;;15.25;5.97;;;;;;;28.67;25.23;101740.27;1756675;81;21004;-86
2021/10/24 08:32:37;;;;;;;13.30;5.75;;;;;;;26.47;26.33;101735.08;1756759;81;20988;-88
2021/10/24 08:35:07;;;;;;;17.40;5.95;;;;;;;24.43;27.95;101735.97;1756765;80;21019;-86
2021/10/24 08:37:34;;;;;;;17.23;6.00;;;;;;;22.91;29.11;101742.03;1756862;81;21035;-87
2021/10/24 08:40:00;;;;;;;19.48;6.40;;;;;;;21.63;30.39;101749.14;1756912;81;21069;-85
2021/10/24 08:42:31;;;;;;;14.58;5.50;;;;;;;20.35;31.78;101743.19;1756618;81;20929;-86
2021/10/24 08:44:56;;;;;;;17.67;5.58;;;;;;;19.34;33.95;101752.16;1753617;81;21136;-85
2021/10/24 08:47:24;;;;;;;12.85;4.92;;;;;;;18.53;34.39;101744.43;1756821;81;21274;-83
2021/10/24 08:49:51;;;;;;;13.30;4.53;;;;;;;17.86;35.70;101745.39;1756841;81;20936;-85
2021/10/24 08:52:21;;;;;;;17.75;4.60;;;;;;;17.45;35.82;101739.27;1754914;80;21136;-88
2021/10/24 08:54:50;;;;;;;14.25;5.50;;;;;;;17.14;36.51;101748.06;1665687;83;21029;-89
2021/10/24 08:57:27;;;;;;;14.83;5.85;;;;;;;16.93;36.94;101749.45;1704511;84;21521;-93
2021/10/24 08:59:55;;;;;;;14.85;5.50;;;;;;;16.71;37.51;101748.36;1703168;84;21525;-84
2021/10/24 09:02:23;;;;;;;11.45;5.42;;;;;;;16.57;38.80;101744.00;1704710;83;21053;-87
2021/10/24 09:04:51;;;;;;;17.42;5.12;;;;;;;16.61;39.47;101744.27;1704333;84;21143;-86
2021/10/24 09:07:21;;;;;;;19.87;5.47;;;;;;;16.70;38.76;101744.53;1704689;83;21012;-90
2021/10/24 09:09:49;;;;;;;16.60;5.25;;;;;;;16.70;38.77;101748.62;1704851;84;20950;-84
2021/10/24 09:12:17;;;;;;;13.45;5.20;;;;;;;16.72;39.21;101747.27;1704333;84;21159;-89
2021/10/24 09:14:55;;;;;;;13.93;5.37;;;;;;;16.72;39.23;101739.64;1704817;84;20973;-89
2021/10/24 09:17:25;;;;;;;12.78;4.97;;;;;;;16.77;39.61;101736.41;1704442;83;21387;-87
2021/10/24 09:19:55;;;;;;;12.03;4.90;;;;;;;16.80;39.43;101739.95;1704761;84;21046;-82
2021/10/24 09:22:27;;;;;;;10.05;4.35;;;;;;;16.78;39.68;101739.39;1704308;83;21585;-87
2021/10/24 09:25:16;;;;;;;9.48;4.33;;;;;;;16.83;38.67;101737.78;1704594;83;21185;-84
2021/10/24 09:27:59;;;;;;;12.23;4.95;;;;;;;16.71;38.97;101732.03;1681141;84;21068;-89
2021/10/24 09:30:36;;;;;;;10.40;4.25;;;;;;;16.66;39.29;101734.75;1697759;84;21231;-89
2021/10/24 09:33:09;;;;;;;9.70;3.60;;;;;;;16.60;38.71;101729.58;1696870;84;21083;-83
2021/10/24 09:35:40;;;;;;;14.33;4.22;;;;;;;16.53;38.78;101727.11;1676343;84;21154;-88
2021/10/24 09:38:14;;;;;;;12.00;4.55;;;;;;;16.54;39.22;101723.32;1704635;84;21027;-91
2021/10/24 09:40:46;;;;;;;11.35;3.55;;;;;;;16.58;38.70;101723.84;1675204;85;21196;-83
2021/10/24 09:43:22;;;;;;;10.05;3.52;;;;;;;16.52;39.04;101727.66;1677560;85;21198;-84
2021/10/24 09:46:02;;;;;;;8.78;3.90;;;;;;;16.39;38.42;101729.57;1596629;89;21054;-88
2021/10/24 09:48:32;;;;;;;12.30;3.87;;;;;;;16.26;39.19;101726.00;1605806;87;21094;-86
2021/10/24 09:51:08;;;;;;;9.05;3.90;;;;;;;16.12;39.53;101723.02;1586918;87;21138;-88
2021/10/24 09:53:37;;;;;;;13.00;4.28;;;;;;;16.01;39.50;101718.63;1633909;87;21137;-88
2021/10/24 09:56:10;;;;;;;10.03;3.22;;;;;;;15.78;39.97;101715.84;1632536;87;21158;-87
2021/10/24 09:58:43;;;;;;;9.78;2.70;;;;;;;15.68;39.91;101704.41;1616269;88;21116;-88
2021/10/24 10:01:13;;;;;;;7.65;2.65;;;;;;;15.53;39.46;101704.30;1622645;88;21085;-85
2021/10/24 10:03:42;;;;;;;9.30;2.50;;;;;;;15.35;39.43;101709.66;1622452;87;20954;-88
2021/10/24 10:06:08;;;;;;;5.95;2.27;;;;;;;15.24;39.34;101707.99;1622652;88;21121;-83
2021/10/24 10:08:37;;;;;;;6.03;2.58;;;;;;;14.98;39.87;101699.14;1622387;88;21169;-85
2021/10/24 10:11:32;;;;;;;7.50;2.98;;;;;;;14.79;39.35;101703.34;1622328;88;21002;-88
2021/10/24 10:14:10;;;;;;;8.25;3.30;;;;;;;14.68;40.38;101708.44;1622297;88;21643;-89
2021/10/24 10:16:39;;;;;;;6.58;3.50;;;;;;;14.60;40.75;101698.88;1599745;89;21575;-84
2021/10/24 10:19:11;;;;;;;8.35;3.40;;;;;;;14.62;41.16;101691.82;1599922;89;21042;-85
2021/10/24 10:21:43;;;;;;;12.33;3.80;;;;;;;14.51;41.45;101693.63;1598943;89;22039;-86
2021/10/24 10:24:37;;;;;;;12.98;3.62;;;;;;;14.47;41.71;101693.84;1585000;89;21050;-82
2021/10/24 10:27:35;;;;;;;10.55;3.67;;;;;;;14.37;41.70;101689.16;1579734;90;21371;-85
2021/10/24 10:30:06;;;;;;;12.53;3.85;;;;;;;14.35;41.92;101695.37;1579836;90;21109;-83
2021/10/24 10:32:41;;;;;;;13.13;3.30;;;;;;;14.41;41.69;101695.72;1579625;90;21125;-83
2021/10/24 10:35:15;;;;;;;13.13;3.50;;;;;;;14.25;41.46;101683.09;1579837;90;21686;-89
2021/10/24 10:37:57;;;;;;;12.15;3.75;;;;;;;14.30;41.73;101697.52;1534957;93;21138;-84
2021/10/24 10:40:34;;;;;;;7.17;3.27;;;;;;;14.35;42.08;101689.95;1535734;92;21078;-84
2021/10/24 10:43:22;;;;;;;6.75;2.83;;;;;;;14.33;41.92;101688.05;1561674;89;21081;-89
2021/10/24 10:45:52;;;;;;;11.35;3.90;;;;;;;14.30;41.49;101695.34;1590542;89;21567;-85
2021/10/24 10:48:38;;;;;;;11.15;3.45;;;;;;;14.30;41.49;101695.34;1593087;89;21116;-86
2021/10/24 10:51:22;;;;;;;11.85;3.60;;;;;;;14.15;42.48;101696.03;1596120;89;21039;-84
2021/10/24 10:53:55;;;;;;;9.55;3.27;;;;;;;14.09;41.73;101688.38;1591646;88;21805;-82
2021/10/24 10:56:36;;;;;;;9.80;3.22;;;;;;;14.01;42.09;101692.08;1635810;86;21894;-86
2021/10/24 10:59:06;;;;;;;9.38;3.20;;;;;;;13.94;42.65;101685.52;1567758;90;21144;-86
2021/10/24 11:01:37;;;;;;;9.68;3.12;;;;;;;13.77;41.69;101688.86;1524616;93;21405;-82
2021/10/24 11:04:14;;;;;;;8.38;3.33;;;;;;;13.59;41.88;101691.36;1527089;94;21070;-86
2021/10/24 11:06:52;;;;;;;8.68;3.52;;;;;;;13.42;42.16;101688.71;1527700;93;21133;-89
2021/10/24 11:09:42;;;;;;;8.60;3.22;;;;;;;13.19;42.61;101693.25;1546420;92;21069;-84
2021/10/24 11:12:14;;;;;;;10.15;3.80;;;;;;;13.12;43.52;101696.69;1553616;92;21171;-81
2021/10/24 11:14:42;;;;;;;13.68;3.85;;;;;;;13.07;44.03;101696.61;1488560;95;21519;-84
2021/10/24 11:17:08;;;;;;;18.70;4.53;;;;;;;13.00;44.54;101691.92;1461500;96;21026;-84
2021/10/24 11:19:42;;;;;;;14.10;3.98;;;;;;;12.88;44.92;101692.02;1456226;98;21131;-87